sensor_id;sensor_type;location;lat;lon;timestamp;P1;durP1;ratioP1;P2;durP2;ratioP2
21860;SDS011;11095;48.066;8.540;2023-03-31T00:01:58;7.60;;;2.53;;
21860;SDS011;11095;48.066;8.540;2023-03-31T00:04:26;5.55;;;2.58;;
21860;SDS011;11095;48.066;8.540;2023-03-31T00:06:52;5.95;;;2.80;;
21860;SDS011;11095;48.066;8.540;2023-03-31T00:09:19;8.65;;;2.75;;
21860;SDS011;11095;48.066;8.540;2023-03-31T00:11:47;7.75;;;2.90;;
21860;SDS011;11095;48.066;8.540;2023-03-31T00:14:14;6.90;;;2.63;;
21860;SDS011;11095;48.066;8.540;2023-03-31T00:16:42;4.97;;;2.55;;
21860;SDS011;11095;48.066;8.540;2023-03-31T00:19:08;6.70;;;2.80;;
21860;SDS011;11095;48.066;8.540;2023-03-31T00:21:41;5.72;;;2.70;;
21860;SDS011;11095;48.066;8.540;2023-03-31T00:24:11;6.90;;;3.05;;
21860;SDS011;11095;48.066;8.540;2023-03-31T00:26:38;9.02;;;2.92;;
21860;SDS011;11095;48.066;8.540;2023-03-31T00:29:05;6.55;;;2.75;;
21860;SDS011;11095;48.066;8.540;2023-03-31T00:31:32;5.50;;;3.20;;
21860;SDS011;11095;48.066;8.540;2023-03-31T00:33:58;7.05;;;3.38;;
21860;SDS011;11095;48.066;8.540;2023-03-31T00:36:26;7.63;;;3.10;;
21860;SDS011;11095;48.066;8.540;2023-03-31T00:39:12;11.10;;;3.53;;
21860;SDS011;11095;48.066;8.540;2023-03-31T00:41:40;6.38;;;3.08;;
21860;SDS011;11095;48.066;8.540;2023-03-31T00:44:13;6.57;;;3.22;;
21860;SDS011;11095;48.066;8.540;2023-03-31T00:49:47;9.40;;;3.70;;
21860;SDS011;11095;48.066;8.540;2023-03-31T00:52:26;6.88;;;3.22;;
21860;SDS011;11095;48.066;8.540;2023-03-31T00:55:06;8.35;;;3.60;;
21860;SDS011;11095;48.066;8.540;2023-03-31T00:57:44;7.13;;;3.25;;
21860;SDS011;11095;48.066;8.540;2023-03-31T01:00:18;7.40;;;3.50;;
21860;SDS011;11095;48.066;8.540;2023-03-31T01:02:49;7.78;;;3.38;;
21860;SDS011;11095;48.066;8.540;2023-03-31T01:05:31;9.20;;;3.53;;
21860;SDS011;11095;48.066;8.540;2023-03-31T01:08:10;7.50;;;3.45;;
21860;SDS011;11095;48.066;8.540;2023-03-31T01:10:47;9.73;;;3.95;;
21860;SDS011;11095;48.066;8.540;2023-03-31T01:13:40;8.25;;;3.55;;
21860;SDS011;11095;48.066;8.540;2023-03-31T01:16:15;6.82;;;3.60;;
21860;SDS011;11095;48.066;8.540;2023-03-31T01:18:46;6.53;;;3.42;;
21860;SDS011;11095;48.066;8.540;2023-03-31T01:21:32;8.07;;;3.50;;
21860;SDS011;11095;48.066;8.540;2023-03-31T01:38:41;7.70;;;3.75;;
21860;SDS011;11095;48.066;8.540;2023-03-31T01:46:49;5.97;;;3.30;;
21860;SDS011;11095;48.066;8.540;2023-03-31T01:49:27;5.00;;;3.28;;
21860;SDS011;11095;48.066;8.540;2023-03-31T01:54:52;8.48;;;4.20;;
21860;SDS011;11095;48.066;8.540;2023-03-31T01:57:30;5.80;;;3.40;;
21860;SDS011;11095;48.066;8.540;2023-03-31T02:00:29;7.25;;;3.45;;
21860;SDS011;11095;48.066;8.540;2023-03-31T02:05:50;5.30;;;3.17;;
21860;SDS011;11095;48.066;8.540;2023-03-31T02:08:30;7.50;;;4.05;;
21860;SDS011;11095;48.066;8.540;2023-03-31T02:11:04;7.75;;;3.75;;
21860;SDS011;11095;48.066;8.540;2023-03-31T02:13:30;6.75;;;3.90;;
21860;SDS011;11095;48.066;8.540;2023-03-31T02:15:59;8.90;;;3.75;;
21860;SDS011;11095;48.066;8.540;2023-03-31T02:18:31;6.20;;;3.65;;
21860;SDS011;11095;48.066;8.540;2023-03-31T02:21:02;5.72;;;3.40;;
21860;SDS011;11095;48.066;8.540;2023-03-31T02:23:31;7.00;;;3.70;;
21860;SDS011;11095;48.066;8.540;2023-03-31T02:26:14;6.07;;;4.20;;
21860;SDS011;11095;48.066;8.540;2023-03-31T02:28:43;7.85;;;3.65;;
21860;SDS011;11095;48.066;8.540;2023-03-31T02:33:50;8.85;;;4.20;;
21860;SDS011;11095;48.066;8.540;2023-03-31T02:36:19;9.18;;;4.10;;
21860;SDS011;11095;48.066;8.540;2023-03-31T02:38:46;8.10;;;3.70;;
21860;SDS011;11095;48.066;8.540;2023-03-31T02:41:19;5.80;;;3.88;;
21860;SDS011;11095;48.066;8.540;2023-03-31T02:43:45;6.78;;;4.25;;
21860;SDS011;11095;48.066;8.540;2023-03-31T02:46:11;8.93;;;4.10;;
21860;SDS011;11095;48.066;8.540;2023-03-31T02:48:45;8.60;;;4.18;;
21860;SDS011;11095;48.066;8.540;2023-03-31T02:51:33;5.75;;;3.65;;
21860;SDS011;11095;48.066;8.540;2023-03-31T02:57:19;9.63;;;4.57;;
21860;SDS011;11095;48.066;8.540;2023-03-31T03:00:05;8.32;;;4.00;;
21860;SDS011;11095;48.066;8.540;2023-03-31T03:13:59;6.63;;;3.75;;
21860;SDS011;11095;48.066;8.540;2023-03-31T03:16:36;8.25;;;3.67;;
21860;SDS011;11095;48.066;8.540;2023-03-31T03:19:06;6.15;;;3.67;;
21860;SDS011;11095;48.066;8.540;2023-03-31T03:21:37;6.57;;;3.42;;
21860;SDS011;11095;48.066;8.540;2023-03-31T03:24:03;6.07;;;3.63;;
21860;SDS011;11095;48.066;8.540;2023-03-31T03:26:32;6.30;;;3.95;;
21860;SDS011;11095;48.066;8.540;2023-03-31T03:28:59;7.50;;;4.20;;
21860;SDS011;11095;48.066;8.540;2023-03-31T03:31:28;7.60;;;3.90;;
21860;SDS011;11095;48.066;8.540;2023-03-31T03:33:54;7.82;;;4.10;;
21860;SDS011;11095;48.066;8.540;2023-03-31T03:36:23;7.80;;;3.92;;
21860;SDS011;11095;48.066;8.540;2023-03-31T03:38:53;7.68;;;4.00;;
21860;SDS011;11095;48.066;8.540;2023-03-31T03:41:19;6.50;;;3.88;;
21860;SDS011;11095;48.066;8.540;2023-03-31T03:43:48;6.68;;;4.03;;
21860;SDS011;11095;48.066;8.540;2023-03-31T03:46:14;9.23;;;4.10;;
21860;SDS011;11095;48.066;8.540;2023-03-31T03:48:41;9.18;;;4.70;;
21860;SDS011;11095;48.066;8.540;2023-03-31T03:51:07;7.90;;;4.40;;
21860;SDS011;11095;48.066;8.540;2023-03-31T03:53:33;7.07;;;4.30;;
21860;SDS011;11095;48.066;8.540;2023-03-31T03:56:01;8.10;;;4.35;;
21860;SDS011;11095;48.066;8.540;2023-03-31T03:58:28;8.50;;;4.97;;
21860;SDS011;11095;48.066;8.540;2023-03-31T04:00:54;9.02;;;5.00;;
21860;SDS011;11095;48.066;8.540;2023-03-31T04:03:21;8.38;;;4.32;;
21860;SDS011;11095;48.066;8.540;2023-03-31T04:05:52;9.30;;;5.10;;
21860;SDS011;11095;48.066;8.540;2023-03-31T04:08:27;8.02;;;5.28;;
21860;SDS011;11095;48.066;8.540;2023-03-31T04:10:58;7.65;;;4.60;;
21860;SDS011;11095;48.066;8.540;2023-03-31T04:13:35;10.68;;;5.50;;
21860;SDS011;11095;48.066;8.540;2023-03-31T04:16:11;7.72;;;4.88;;
21860;SDS011;11095;48.066;8.540;2023-03-31T04:18:48;9.63;;;5.30;;
21860;SDS011;11095;48.066;8.540;2023-03-31T04:21:31;8.82;;;5.10;;
21860;SDS011;11095;48.066;8.540;2023-03-31T04:24:00;7.18;;;5.18;;
21860;SDS011;11095;48.066;8.540;2023-03-31T04:26:29;11.10;;;5.30;;
21860;SDS011;11095;48.066;8.540;2023-03-31T04:29:07;8.48;;;5.22;;
21860;SDS011;11095;48.066;8.540;2023-03-31T04:31:34;13.68;;;5.40;;
21860;SDS011;11095;48.066;8.540;2023-03-31T04:34:09;10.82;;;5.35;;
21860;SDS011;11095;48.066;8.540;2023-03-31T04:36:40;8.70;;;5.00;;
21860;SDS011;11095;48.066;8.540;2023-03-31T04:39:21;9.18;;;5.20;;
21860;SDS011;11095;48.066;8.540;2023-03-31T04:41:51;9.68;;;5.35;;
21860;SDS011;11095;48.066;8.540;2023-03-31T04:44:22;7.60;;;5.25;;
21860;SDS011;11095;48.066;8.540;2023-03-31T04:46:51;9.50;;;5.55;;
21860;SDS011;11095;48.066;8.540;2023-03-31T04:49:17;9.63;;;5.60;;
21860;SDS011;11095;48.066;8.540;2023-03-31T04:51:43;13.05;;;5.78;;
21860;SDS011;11095;48.066;8.540;2023-03-31T04:54:09;11.38;;;5.95;;
21860;SDS011;11095;48.066;8.540;2023-03-31T04:56:35;9.75;;;5.90;;
21860;SDS011;11095;48.066;8.540;2023-03-31T04:59:00;9.38;;;6.35;;
21860;SDS011;11095;48.066;8.540;2023-03-31T05:01:27;9.88;;;5.97;;
21860;SDS011;11095;48.066;8.540;2023-03-31T05:03:57;9.90;;;6.20;;
21860;SDS011;11095;48.066;8.540;2023-03-31T05:06:23;8.85;;;6.05;;
21860;SDS011;11095;48.066;8.540;2023-03-31T05:08:49;12.70;;;6.65;;
21860;SDS011;11095;48.066;8.540;2023-03-31T05:11:15;10.85;;;6.38;;
21860;SDS011;11095;48.066;8.540;2023-03-31T05:13:41;11.90;;;5.95;;
21860;SDS011;11095;48.066;8.540;2023-03-31T05:16:10;8.75;;;6.35;;
21860;SDS011;11095;48.066;8.540;2023-03-31T05:18:38;11.88;;;6.43;;
21860;SDS011;11095;48.066;8.540;2023-03-31T05:21:15;8.25;;;6.30;;
21860;SDS011;11095;48.066;8.540;2023-03-31T05:23:42;10.98;;;6.32;;
21860;SDS011;11095;48.066;8.540;2023-03-31T05:26:08;9.73;;;6.80;;
21860;SDS011;11095;48.066;8.540;2023-03-31T05:28:35;14.55;;;7.30;;
21860;SDS011;11095;48.066;8.540;2023-03-31T05:31:01;9.93;;;7.10;;
21860;SDS011;11095;48.066;8.540;2023-03-31T05:33:28;10.63;;;7.10;;
21860;SDS011;11095;48.066;8.540;2023-03-31T05:35:55;12.50;;;7.32;;
21860;SDS011;11095;48.066;8.540;2023-03-31T05:38:21;11.80;;;7.05;;
21860;SDS011;11095;48.066;8.540;2023-03-31T05:40:47;11.95;;;7.28;;
21860;SDS011;11095;48.066;8.540;2023-03-31T05:43:12;11.93;;;7.43;;
21860;SDS011;11095;48.066;8.540;2023-03-31T05:45:38;13.98;;;7.95;;
21860;SDS011;11095;48.066;8.540;2023-03-31T05:48:04;12.32;;;7.90;;
21860;SDS011;11095;48.066;8.540;2023-03-31T05:50:30;13.43;;;8.15;;
21860;SDS011;11095;48.066;8.540;2023-03-31T05:52:55;12.35;;;8.07;;
21860;SDS011;11095;48.066;8.540;2023-03-31T05:55:22;13.55;;;8.23;;
21860;SDS011;11095;48.066;8.540;2023-03-31T05:57:47;14.18;;;8.45;;
21860;SDS011;11095;48.066;8.540;2023-03-31T06:00:13;14.75;;;8.60;;
21860;SDS011;11095;48.066;8.540;2023-03-31T06:02:39;14.95;;;9.13;;
21860;SDS011;11095;48.066;8.540;2023-03-31T06:05:05;12.30;;;8.30;;
21860;SDS011;11095;48.066;8.540;2023-03-31T06:07:31;13.63;;;8.60;;
21860;SDS011;11095;48.066;8.540;2023-03-31T06:09:57;14.20;;;9.23;;
21860;SDS011;11095;48.066;8.540;2023-03-31T06:12:22;15.85;;;9.35;;
21860;SDS011;11095;48.066;8.540;2023-03-31T06:14:48;18.27;;;9.60;;
21860;SDS011;11095;48.066;8.540;2023-03-31T06:17:14;13.77;;;8.90;;
21860;SDS011;11095;48.066;8.540;2023-03-31T06:19:39;12.45;;;8.73;;
21860;SDS011;11095;48.066;8.540;2023-03-31T06:22:05;18.42;;;9.10;;
21860;SDS011;11095;48.066;8.540;2023-03-31T06:24:31;12.13;;;8.68;;
21860;SDS011;11095;48.066;8.540;2023-03-31T06:26:56;16.13;;;8.65;;
21860;SDS011;11095;48.066;8.540;2023-03-31T06:29:24;13.80;;;8.68;;
21860;SDS011;11095;48.066;8.540;2023-03-31T06:31:53;16.33;;;8.55;;
21860;SDS011;11095;48.066;8.540;2023-03-31T06:34:20;13.07;;;8.38;;
21860;SDS011;11095;48.066;8.540;2023-03-31T06:36:51;11.93;;;7.05;;
21860;SDS011;11095;48.066;8.540;2023-03-31T06:39:17;10.63;;;6.22;;
21860;SDS011;11095;48.066;8.540;2023-03-31T06:41:43;9.50;;;5.60;;
21860;SDS011;11095;48.066;8.540;2023-03-31T06:44:09;2.95;;;1.92;;
21860;SDS011;11095;48.066;8.540;2023-03-31T06:46:35;1.88;;;1.50;;
21860;SDS011;11095;48.066;8.540;2023-03-31T06:49:00;1.80;;;0.93;;
21860;SDS011;11095;48.066;8.540;2023-03-31T06:51:26;0.80;;;0.75;;
21860;SDS011;11095;48.066;8.540;2023-03-31T06:53:52;0.93;;;0.60;;
21860;SDS011;11095;48.066;8.540;2023-03-31T06:56:18;0.60;;;0.57;;
21860;SDS011;11095;48.066;8.540;2023-03-31T06:58:44;1.73;;;0.55;;
21860;SDS011;11095;48.066;8.540;2023-03-31T07:01:13;0.88;;;0.60;;
21860;SDS011;11095;48.066;8.540;2023-03-31T07:03:38;1.35;;;0.60;;
21860;SDS011;11095;48.066;8.540;2023-03-31T07:06:04;0.70;;;0.50;;
21860;SDS011;11095;48.066;8.540;2023-03-31T07:08:31;0.60;;;0.60;;
21860;SDS011;11095;48.066;8.540;2023-03-31T07:10:57;1.27;;;0.80;;
21860;SDS011;11095;48.066;8.540;2023-03-31T07:13:25;3.72;;;0.90;;
21860;SDS011;11095;48.066;8.540;2023-03-31T07:15:51;3.33;;;0.90;;
21860;SDS011;11095;48.066;8.540;2023-03-31T07:18:18;1.67;;;0.82;;
21860;SDS011;11095;48.066;8.540;2023-03-31T07:20:46;0.95;;;0.70;;
21860;SDS011;11095;48.066;8.540;2023-03-31T07:23:21;2.78;;;1.05;;
21860;SDS011;11095;48.066;8.540;2023-03-31T07:25:50;1.45;;;1.00;;
21860;SDS011;11095;48.066;8.540;2023-03-31T07:28:32;1.15;;;0.70;;
21860;SDS011;11095;48.066;8.540;2023-03-31T07:31:00;1.67;;;0.90;;
21860;SDS011;11095;48.066;8.540;2023-03-31T07:33:37;3.03;;;0.80;;
21860;SDS011;11095;48.066;8.540;2023-03-31T07:36:06;1.17;;;0.50;;
21860;SDS011;11095;48.066;8.540;2023-03-31T07:38:35;1.83;;;0.70;;
21860;SDS011;11095;48.066;8.540;2023-03-31T07:41:13;1.52;;;0.65;;
21860;SDS011;11095;48.066;8.540;2023-03-31T07:44:05;3.00;;;0.63;;
21860;SDS011;11095;48.066;8.540;2023-03-31T07:49:58;1.30;;;0.70;;
21860;SDS011;11095;48.066;8.540;2023-03-31T07:52:52;1.23;;;0.50;;
21860;SDS011;11095;48.066;8.540;2023-03-31T07:58:22;0.98;;;0.60;;
21860;SDS011;11095;48.066;8.540;2023-03-31T08:00:48;1.38;;;0.63;;
21860;SDS011;11095;48.066;8.540;2023-03-31T08:03:14;1.15;;;0.88;;
21860;SDS011;11095;48.066;8.540;2023-03-31T08:05:49;1.00;;;0.60;;
21860;SDS011;11095;48.066;8.540;2023-03-31T08:08:18;1.35;;;0.60;;
21860;SDS011;11095;48.066;8.540;2023-03-31T08:10:47;1.97;;;0.80;;
21860;SDS011;11095;48.066;8.540;2023-03-31T08:13:13;2.53;;;0.95;;
21860;SDS011;11095;48.066;8.540;2023-03-31T08:15:42;2.38;;;0.93;;
21860;SDS011;11095;48.066;8.540;2023-03-31T08:18:07;1.65;;;0.77;;
21860;SDS011;11095;48.066;8.540;2023-03-31T08:20:33;1.42;;;0.80;;
21860;SDS011;11095;48.066;8.540;2023-03-31T08:22:59;2.90;;;1.00;;
21860;SDS011;11095;48.066;8.540;2023-03-31T08:25:25;2.55;;;0.90;;
21860;SDS011;11095;48.066;8.540;2023-03-31T08:27:50;1.73;;;0.90;;
21860;SDS011;11095;48.066;8.540;2023-03-31T08:30:17;3.17;;;1.20;;
21860;SDS011;11095;48.066;8.540;2023-03-31T08:32:43;2.42;;;0.90;;
21860;SDS011;11095;48.066;8.540;2023-03-31T08:35:12;2.45;;;1.05;;
21860;SDS011;11095;48.066;8.540;2023-03-31T08:37:38;2.95;;;1.10;;
21860;SDS011;11095;48.066;8.540;2023-03-31T08:40:04;2.92;;;1.27;;
21860;SDS011;11095;48.066;8.540;2023-03-31T08:42:42;2.38;;;1.00;;
21860;SDS011;11095;48.066;8.540;2023-03-31T08:45:19;2.90;;;1.15;;
21860;SDS011;11095;48.066;8.540;2023-03-31T08:47:53;2.03;;;1.08;;
21860;SDS011;11095;48.066;8.540;2023-03-31T08:50:24;2.30;;;1.08;;
21860;SDS011;11095;48.066;8.540;2023-03-31T09:00:45;3.30;;;1.15;;
21860;SDS011;11095;48.066;8.540;2023-03-31T09:03:25;2.53;;;0.90;;
21860;SDS011;11095;48.066;8.540;2023-03-31T09:06:20;3.90;;;1.15;;
21860;SDS011;11095;48.066;8.540;2023-03-31T09:08:51;3.70;;;1.38;;
21860;SDS011;11095;48.066;8.540;2023-03-31T09:11:33;4.15;;;1.33;;
21860;SDS011;11095;48.066;8.540;2023-03-31T09:17:07;5.75;;;1.30;;
21860;SDS011;11095;48.066;8.540;2023-03-31T09:19:57;2.75;;;1.10;;
21860;SDS011;11095;48.066;8.540;2023-03-31T09:22:33;4.78;;;1.42;;
21860;SDS011;11095;48.066;8.540;2023-03-31T09:27:32;3.83;;;1.30;;
21860;SDS011;11095;48.066;8.540;2023-03-31T09:30:02;4.82;;;1.48;;
21860;SDS011;11095;48.066;8.540;2023-03-31T09:32:30;3.78;;;1.30;;
21860;SDS011;11095;48.066;8.540;2023-03-31T09:35:01;5.05;;;1.20;;
21860;SDS011;11095;48.066;8.540;2023-03-31T09:37:40;2.53;;;0.98;;
21860;SDS011;11095;48.066;8.540;2023-03-31T09:40:06;4.15;;;1.05;;
21860;SDS011;11095;48.066;8.540;2023-03-31T09:42:38;3.05;;;0.90;;
21860;SDS011;11095;48.066;8.540;2023-03-31T09:45:04;3.47;;;1.17;;
21860;SDS011;11095;48.066;8.540;2023-03-31T09:47:37;4.13;;;1.20;;
21860;SDS011;11095;48.066;8.540;2023-03-31T09:50:09;4.20;;;1.25;;
21860;SDS011;11095;48.066;8.540;2023-03-31T09:52:36;4.13;;;0.90;;
21860;SDS011;11095;48.066;8.540;2023-03-31T09:57:46;2.63;;;1.02;;
21860;SDS011;11095;48.066;8.540;2023-03-31T10:00:16;3.40;;;1.00;;
21860;SDS011;11095;48.066;8.540;2023-03-31T10:02:56;2.83;;;1.00;;
21860;SDS011;11095;48.066;8.540;2023-03-31T10:10:48;5.32;;;1.30;;
21860;SDS011;11095;48.066;8.540;2023-03-31T10:13:42;2.65;;;1.13;;
21860;SDS011;11095;48.066;8.540;2023-03-31T10:16:19;4.80;;;1.08;;
21860;SDS011;11095;48.066;8.540;2023-03-31T10:18:51;3.13;;;0.93;;
21860;SDS011;11095;48.066;8.540;2023-03-31T10:21:20;3.95;;;1.00;;
21860;SDS011;11095;48.066;8.540;2023-03-31T10:23:49;3.53;;;1.02;;
21860;SDS011;11095;48.066;8.540;2023-03-31T10:26:16;3.05;;;0.90;;
21860;SDS011;11095;48.066;8.540;2023-03-31T10:28:49;4.22;;;1.15;;
21860;SDS011;11095;48.066;8.540;2023-03-31T10:31:19;3.92;;;1.20;;
21860;SDS011;11095;48.066;8.540;2023-03-31T10:33:58;4.72;;;1.23;;
21860;SDS011;11095;48.066;8.540;2023-03-31T10:36:33;2.28;;;1.05;;
21860;SDS011;11095;48.066;8.540;2023-03-31T10:38:59;3.50;;;1.17;;
21860;SDS011;11095;48.066;8.540;2023-03-31T10:41:31;4.22;;;1.08;;
21860;SDS011;11095;48.066;8.540;2023-03-31T10:43:58;3.83;;;1.20;;
21860;SDS011;11095;48.066;8.540;2023-03-31T10:46:38;3.10;;;0.98;;
21860;SDS011;11095;48.066;8.540;2023-03-31T10:49:28;5.82;;;1.13;;
21860;SDS011;11095;48.066;8.540;2023-03-31T10:51:55;3.75;;;1.13;;
21860;SDS011;11095;48.066;8.540;2023-03-31T10:54:25;4.07;;;1.30;;
21860;SDS011;11095;48.066;8.540;2023-03-31T10:56:52;3.47;;;1.15;;
21860;SDS011;11095;48.066;8.540;2023-03-31T10:59:39;4.20;;;1.13;;
21860;SDS011;11095;48.066;8.540;2023-03-31T11:05:02;2.95;;;1.00;;
21860;SDS011;11095;48.066;8.540;2023-03-31T11:13:21;3.97;;;1.20;;
21860;SDS011;11095;48.066;8.540;2023-03-31T11:16:05;4.07;;;1.08;;
21860;SDS011;11095;48.066;8.540;2023-03-31T11:18:55;4.10;;;1.13;;
21860;SDS011;11095;48.066;8.540;2023-03-31T11:24:59;2.40;;;0.90;;
21860;SDS011;11095;48.066;8.540;2023-03-31T11:28:16;4.35;;;0.93;;
21860;SDS011;11095;48.066;8.540;2023-03-31T11:33:12;4.22;;;1.13;;
21860;SDS011;11095;48.066;8.540;2023-03-31T11:41:37;4.43;;;0.90;;
21860;SDS011;11095;48.066;8.540;2023-03-31T11:44:16;4.15;;;1.20;;
21860;SDS011;11095;48.066;8.540;2023-03-31T11:51:43;5.00;;;1.20;;
21860;SDS011;11095;48.066;8.540;2023-03-31T11:54:55;3.47;;;1.02;;
21860;SDS011;11095;48.066;8.540;2023-03-31T11:57:09;3.03;;;0.98;;
21860;SDS011;11095;48.066;8.540;2023-03-31T11:59:47;4.07;;;1.02;;
21860;SDS011;11095;48.066;8.540;2023-03-31T12:02:29;3.17;;;1.00;;
21860;SDS011;11095;48.066;8.540;2023-03-31T12:04:56;3.97;;;1.15;;
21860;SDS011;11095;48.066;8.540;2023-03-31T12:10:20;4.05;;;1.00;;
21860;SDS011;11095;48.066;8.540;2023-03-31T12:18:00;4.18;;;1.10;;
21860;SDS011;11095;48.066;8.540;2023-03-31T12:20:33;4.35;;;0.98;;
21860;SDS011;11095;48.066;8.540;2023-03-31T12:23:04;4.05;;;1.17;;
21860;SDS011;11095;48.066;8.540;2023-03-31T12:25:44;2.97;;;0.90;;
21860;SDS011;11095;48.066;8.540;2023-03-31T12:28:32;2.50;;;0.80;;
21860;SDS011;11095;48.066;8.540;2023-03-31T12:31:02;2.30;;;0.57;;
21860;SDS011;11095;48.066;8.540;2023-03-31T12:33:36;3.17;;;0.70;;
21860;SDS011;11095;48.066;8.540;2023-03-31T12:36:11;2.47;;;0.52;;
21860;SDS011;11095;48.066;8.540;2023-03-31T12:44:51;1.80;;;0.60;;
21860;SDS011;11095;48.066;8.540;2023-03-31T12:50:24;2.25;;;0.70;;
21860;SDS011;11095;48.066;8.540;2023-03-31T12:53:11;1.13;;;0.60;;
21860;SDS011;11095;48.066;8.540;2023-03-31T12:56:05;1.55;;;0.70;;
21860;SDS011;11095;48.066;8.540;2023-03-31T12:58:35;0.98;;;0.52;;
21860;SDS011;11095;48.066;8.540;2023-03-31T13:03:51;2.78;;;0.77;;
21860;SDS011;11095;48.066;8.540;2023-03-31T13:16:28;1.30;;;0.60;;
21860;SDS011;11095;48.066;8.540;2023-03-31T13:18:55;1.83;;;0.70;;
21860;SDS011;11095;48.066;8.540;2023-03-31T13:21:22;2.97;;;1.00;;
21860;SDS011;11095;48.066;8.540;2023-03-31T13:23:48;3.08;;;0.68;;
21860;SDS011;11095;48.066;8.540;2023-03-31T13:34:34;3.17;;;1.00;;
21860;SDS011;11095;48.066;8.540;2023-03-31T13:37:13;3.50;;;1.00;;
21860;SDS011;11095;48.066;8.540;2023-03-31T13:40:15;3.15;;;1.00;;
21860;SDS011;11095;48.066;8.540;2023-03-31T13:51:28;4.57;;;1.08;;
21860;SDS011;11095;48.066;8.540;2023-03-31T13:57:12;4.30;;;0.98;;
21860;SDS011;11095;48.066;8.540;2023-03-31T14:13:43;4.03;;;1.08;;
21860;SDS011;11095;48.066;8.540;2023-03-31T14:16:08;2.90;;;0.80;;
21860;SDS011;11095;48.066;8.540;2023-03-31T14:18:35;3.38;;;0.70;;
21860;SDS011;11095;48.066;8.540;2023-03-31T14:21:09;3.05;;;0.45;;
21860;SDS011;11095;48.066;8.540;2023-03-31T14:29:28;1.65;;;0.47;;
21860;SDS011;11095;48.066;8.540;2023-03-31T14:35:11;0.98;;;0.40;;
21860;SDS011;11095;48.066;8.540;2023-03-31T14:37:50;0.70;;;0.52;;
21860;SDS011;11095;48.066;8.540;2023-03-31T14:40:17;0.70;;;0.35;;
21860;SDS011;11095;48.066;8.540;2023-03-31T14:42:44;1.98;;;0.47;;
21860;SDS011;11095;48.066;8.540;2023-03-31T14:45:18;0.98;;;0.38;;
21860;SDS011;11095;48.066;8.540;2023-03-31T14:48:02;1.30;;;0.50;;
21860;SDS011;11095;48.066;8.540;2023-03-31T14:50:40;1.52;;;0.50;;
21860;SDS011;11095;48.066;8.540;2023-03-31T14:53:16;0.80;;;0.50;;
21860;SDS011;11095;48.066;8.540;2023-03-31T14:55:47;2.13;;;0.40;;
21860;SDS011;11095;48.066;8.540;2023-03-31T14:58:14;1.10;;;0.40;;
21860;SDS011;11095;48.066;8.540;2023-03-31T15:00:58;1.77;;;0.40;;
21860;SDS011;11095;48.066;8.540;2023-03-31T15:03:27;1.27;;;0.55;;
21860;SDS011;11095;48.066;8.540;2023-03-31T15:05:57;1.35;;;0.45;;
21860;SDS011;11095;48.066;8.540;2023-03-31T15:08:24;0.90;;;0.50;;
21860;SDS011;11095;48.066;8.540;2023-03-31T15:10:52;1.30;;;0.60;;
21860;SDS011;11095;48.066;8.540;2023-03-31T15:13:26;1.20;;;0.50;;
21860;SDS011;11095;48.066;8.540;2023-03-31T15:15:58;0.60;;;0.50;;
21860;SDS011;11095;48.066;8.540;2023-03-31T15:18:25;0.50;;;0.30;;
21860;SDS011;11095;48.066;8.540;2023-03-31T15:20:51;1.10;;;0.52;;
21860;SDS011;11095;48.066;8.540;2023-03-31T15:23:27;0.95;;;0.50;;
21860;SDS011;11095;48.066;8.540;2023-03-31T15:26:00;1.20;;;0.50;;
21860;SDS011;11095;48.066;8.540;2023-03-31T15:28:33;1.38;;;0.50;;
21860;SDS011;11095;48.066;8.540;2023-03-31T15:31:05;1.45;;;0.50;;
21860;SDS011;11095;48.066;8.540;2023-03-31T15:33:32;2.83;;;0.60;;
21860;SDS011;11095;48.066;8.540;2023-03-31T15:36:00;0.75;;;0.50;;
21860;SDS011;11095;48.066;8.540;2023-03-31T15:38:27;3.03;;;0.88;;
21860;SDS011;11095;48.066;8.540;2023-03-31T15:40:55;2.65;;;0.60;;
21860;SDS011;11095;48.066;8.540;2023-03-31T15:43:27;3.78;;;0.80;;
21860;SDS011;11095;48.066;8.540;2023-03-31T15:49:03;2.20;;;0.93;;
21860;SDS011;11095;48.066;8.540;2023-03-31T15:53:50;3.53;;;1.00;;
21860;SDS011;11095;48.066;8.540;2023-03-31T15:58:57;3.22;;;1.10;;
21860;SDS011;11095;48.066;8.540;2023-03-31T16:01:26;5.85;;;1.02;;
21860;SDS011;11095;48.066;8.540;2023-03-31T16:03:56;6.40;;;1.30;;
21860;SDS011;11095;48.066;8.540;2023-03-31T16:09:13;5.15;;;1.20;;
21860;SDS011;11095;48.066;8.540;2023-03-31T16:11:45;4.65;;;1.50;;
21860;SDS011;11095;48.066;8.540;2023-03-31T16:14:18;3.47;;;1.08;;
21860;SDS011;11095;48.066;8.540;2023-03-31T16:16:59;2.05;;;0.70;;
21860;SDS011;11095;48.066;8.540;2023-03-31T16:19:29;4.50;;;0.80;;
21860;SDS011;11095;48.066;8.540;2023-03-31T16:22:01;3.38;;;0.75;;
21860;SDS011;11095;48.066;8.540;2023-03-31T16:24:32;4.43;;;1.30;;
21860;SDS011;11095;48.066;8.540;2023-03-31T16:26:59;2.70;;;1.10;;
21860;SDS011;11095;48.066;8.540;2023-03-31T16:29:30;3.67;;;1.10;;
21860;SDS011;11095;48.066;8.540;2023-03-31T16:32:07;3.47;;;1.35;;
21860;SDS011;11095;48.066;8.540;2023-03-31T16:34:47;4.80;;;1.20;;
21860;SDS011;11095;48.066;8.540;2023-03-31T16:37:22;4.43;;;1.30;;
21860;SDS011;11095;48.066;8.540;2023-03-31T16:39:48;4.13;;;1.02;;
21860;SDS011;11095;48.066;8.540;2023-03-31T16:42:14;5.57;;;1.10;;
21860;SDS011;11095;48.066;8.540;2023-03-31T16:44:40;2.55;;;1.08;;
21860;SDS011;11095;48.066;8.540;2023-03-31T16:47:05;2.10;;;0.88;;
21860;SDS011;11095;48.066;8.540;2023-03-31T16:49:31;3.25;;;0.90;;
21860;SDS011;11095;48.066;8.540;2023-03-31T16:51:57;3.25;;;0.77;;
21860;SDS011;11095;48.066;8.540;2023-03-31T16:54:23;3.17;;;1.13;;
21860;SDS011;11095;48.066;8.540;2023-03-31T16:56:48;2.95;;;0.90;;
21860;SDS011;11095;48.066;8.540;2023-03-31T16:59:14;3.45;;;0.93;;
21860;SDS011;11095;48.066;8.540;2023-03-31T17:01:40;2.22;;;1.00;;
21860;SDS011;11095;48.066;8.540;2023-03-31T17:04:05;2.13;;;0.80;;
21860;SDS011;11095;48.066;8.540;2023-03-31T17:06:31;1.98;;;0.90;;
21860;SDS011;11095;48.066;8.540;2023-03-31T17:08:57;3.88;;;1.13;;
21860;SDS011;11095;48.066;8.540;2023-03-31T17:11:22;2.33;;;0.85;;
21860;SDS011;11095;48.066;8.540;2023-03-31T17:13:48;5.30;;;1.08;;
21860;SDS011;11095;48.066;8.540;2023-03-31T17:16:15;2.60;;;0.85;;
21860;SDS011;11095;48.066;8.540;2023-03-31T17:18:42;4.25;;;0.93;;
21860;SDS011;11095;48.066;8.540;2023-03-31T17:21:09;2.58;;;0.68;;
21860;SDS011;11095;48.066;8.540;2023-03-31T17:23:37;3.38;;;1.00;;
21860;SDS011;11095;48.066;8.540;2023-03-31T17:26:03;3.58;;;1.20;;
21860;SDS011;11095;48.066;8.540;2023-03-31T17:28:30;2.72;;;1.00;;
21860;SDS011;11095;48.066;8.540;2023-03-31T17:30:57;2.88;;;1.17;;
21860;SDS011;11095;48.066;8.540;2023-03-31T17:33:23;2.95;;;1.00;;
21860;SDS011;11095;48.066;8.540;2023-03-31T17:35:49;3.30;;;1.23;;
21860;SDS011;11095;48.066;8.540;2023-03-31T17:38:15;5.40;;;1.38;;
21860;SDS011;11095;48.066;8.540;2023-03-31T17:40:43;2.55;;;1.08;;
21860;SDS011;11095;48.066;8.540;2023-03-31T17:43:09;4.30;;;1.45;;
21860;SDS011;11095;48.066;8.540;2023-03-31T17:45:35;2.30;;;0.88;;
21860;SDS011;11095;48.066;8.540;2023-03-31T17:48:00;4.72;;;1.00;;
21860;SDS011;11095;48.066;8.540;2023-03-31T17:50:26;4.13;;;0.98;;
21860;SDS011;11095;48.066;8.540;2023-03-31T17:52:52;6.05;;;1.15;;
21860;SDS011;11095;48.066;8.540;2023-03-31T17:55:17;2.95;;;0.90;;
21860;SDS011;11095;48.066;8.540;2023-03-31T17:57:44;3.10;;;1.00;;
21860;SDS011;11095;48.066;8.540;2023-03-31T18:00:10;3.75;;;0.82;;
21860;SDS011;11095;48.066;8.540;2023-03-31T18:02:39;4.35;;;1.00;;
21860;SDS011;11095;48.066;8.540;2023-03-31T18:05:05;4.93;;;1.10;;
21860;SDS011;11095;48.066;8.540;2023-03-31T18:07:32;3.17;;;0.88;;
21860;SDS011;11095;48.066;8.540;2023-03-31T18:09:58;2.88;;;1.00;;
21860;SDS011;11095;48.066;8.540;2023-03-31T18:12:24;3.30;;;1.30;;